sensor_id;sensor_type;location;lat;lon;timestamp;temperature;humidity
33492;DHT22;20010;51.488;7.232;2022-10-31T00:01:37;15.50;99.90
33492;DHT22;20010;51.488;7.232;2022-10-31T00:04:05;15.50;99.90
33492;DHT22;20010;51.488;7.232;2022-10-31T00:06:32;15.50;99.90
33492;DHT22;20010;51.488;7.232;2022-10-31T00:09:01;15.60;99.90
33492;DHT22;20010;51.488;7.232;2022-10-31T00:11:28;15.60;99.90
33492;DHT22;20010;51.488;7.232;2022-10-31T00:13:57;15.60;99.90
33492;DHT22;20010;51.488;7.232;2022-10-31T00:16:25;15.60;99.90
33492;DHT22;20010;51.488;7.232;2022-10-31T00:18:54;15.60;99.90
33492;DHT22;20010;51.488;7.232;2022-10-31T00:21:21;15.60;99.90
33492;DHT22;20010;51.488;7.232;2022-10-31T00:23:48;15.60;99.90
33492;DHT22;20010;51.488;7.232;2022-10-31T00:26:15;15.60;99.90
33492;DHT22;20010;51.488;7.232;2022-10-31T00:28:42;15.70;99.90
33492;DHT22;20010;51.488;7.232;2022-10-31T00:31:10;15.60;99.90
33492;DHT22;20010;51.488;7.232;2022-10-31T00:33:38;15.60;99.90
33492;DHT22;20010;51.488;7.232;2022-10-31T00:36:06;15.60;99.90
33492;DHT22;20010;51.488;7.232;2022-10-31T00:38:33;15.60;99.90
33492;DHT22;20010;51.488;7.232;2022-10-31T00:41:00;15.50;99.90
33492;DHT22;20010;51.488;7.232;2022-10-31T00:43:27;15.50;99.90
33492;DHT22;20010;51.488;7.232;2022-10-31T00:45:54;15.50;99.90
33492;DHT22;20010;51.488;7.232;2022-10-31T00:48:20;15.50;99.90
33492;DHT22;20010;51.488;7.232;2022-10-31T00:50:47;15.40;99.90
33492;DHT22;20010;51.488;7.232;2022-10-31T00:53:14;15.40;99.90
33492;DHT22;20010;51.488;7.232;2022-10-31T00:55:40;15.40;99.90
33492;DHT22;20010;51.488;7.232;2022-10-31T00:58:07;15.30;99.90
33492;DHT22;20010;51.488;7.232;2022-10-31T01:00:34;15.30;99.90
33492;DHT22;20010;51.488;7.232;2022-10-31T01:03:01;15.30;99.90
33492;DHT22;20010;51.488;7.232;2022-10-31T01:05:28;15.30;99.90
33492;DHT22;20010;51.488;7.232;2022-10-31T01:07:55;15.30;99.90
33492;DHT22;20010;51.488;7.232;2022-10-31T01:10:22;15.30;99.90
33492;DHT22;20010;51.488;7.232;2022-10-31T01:12:49;15.30;99.90
33492;DHT22;20010;51.488;7.232;2022-10-31T01:15:20;15.30;99.90
33492;DHT22;20010;51.488;7.232;2022-10-31T01:17:47;15.30;99.90
33492;DHT22;20010;51.488;7.232;2022-10-31T01:20:15;15.30;99.90
33492;DHT22;20010;51.488;7.232;2022-10-31T01:22:42;15.30;99.90
33492;DHT22;20010;51.488;7.232;2022-10-31T01:25:10;15.30;99.90
33492;DHT22;20010;51.488;7.232;2022-10-31T01:27:37;15.30;99.90
33492;DHT22;20010;51.488;7.232;2022-10-31T01:30:04;15.30;99.90
33492;DHT22;20010;51.488;7.232;2022-10-31T01:32:31;15.30;99.90
33492;DHT22;20010;51.488;7.232;2022-10-31T01:34:58;15.20;99.90
33492;DHT22;20010;51.488;7.232;2022-10-31T01:37:25;15.20;99.90
33492;DHT22;20010;51.488;7.232;2022-10-31T01:39:52;15.20;99.90
33492;DHT22;20010;51.488;7.232;2022-10-31T01:42:20;15.20;99.90
33492;DHT22;20010;51.488;7.232;2022-10-31T01:45:01;15.20;99.90
33492;DHT22;20010;51.488;7.232;2022-10-31T01:47:34;15.20;99.90
33492;DHT22;20010;51.488;7.232;2022-10-31T01:50:11;15.20;99.90
33492;DHT22;20010;51.488;7.232;2022-10-31T01:52:47;15.10;99.90
33492;DHT22;20010;51.488;7.232;2022-10-31T01:55:30;15.10;99.90
33492;DHT22;20010;51.488;7.232;2022-10-31T01:58:04;15.10;99.90
33492;DHT22;20010;51.488;7.232;2022-10-31T02:00:31;15.10;99.90
33492;DHT22;20010;51.488;7.232;2022-10-31T02:02:58;15.00;99.90
33492;DHT22;20010;51.488;7.232;2022-10-31T02:05:28;14.90;99.90
33492;DHT22;20010;51.488;7.232;2022-10-31T02:08:11;14.90;99.90
33492;DHT22;20010;51.488;7.232;2022-10-31T02:10:40;14.90;99.90
33492;DHT22;20010;51.488;7.232;2022-10-31T02:13:09;14.90;99.90
33492;DHT22;20010;51.488;7.232;2022-10-31T02:15:38;14.90;99.90
33492;DHT22;20010;51.488;7.232;2022-10-31T02:18:06;14.90;99.90
33492;DHT22;20010;51.488;7.232;2022-10-31T02:31:42;14.80;99.90
33492;DHT22;20010;51.488;7.232;2022-10-31T02:34:24;14.80;99.90
33492;DHT22;20010;51.488;7.232;2022-10-31T02:37:13;14.80;99.90
33492;DHT22;20010;51.488;7.232;2022-10-31T02:47:50;14.50;99.90
33492;DHT22;20010;51.488;7.232;2022-10-31T02:50:23;14.50;99.90
33492;DHT22;20010;51.488;7.232;2022-10-31T02:52:52;14.40;99.90
33492;DHT22;20010;51.488;7.232;2022-10-31T02:57:50;14.30;99.90
33492;DHT22;20010;51.488;7.232;2022-10-31T03:00:18;14.20;99.90
33492;DHT22;20010;51.488;7.232;2022-10-31T03:08:41;14.30;99.90
33492;DHT22;20010;51.488;7.232;2022-10-31T03:11:10;14.40;99.90
33492;DHT22;20010;51.488;7.232;2022-10-31T03:21:42;14.40;99.90
33492;DHT22;20010;51.488;7.232;2022-10-31T03:24:11;14.40;99.90
33492;DHT22;20010;51.488;7.232;2022-10-31T03:26:41;14.40;99.90
33492;DHT22;20010;51.488;7.232;2022-10-31T03:29:12;14.30;99.90
33492;DHT22;20010;51.488;7.232;2022-10-31T03:31:42;14.30;99.90
33492;DHT22;20010;51.488;7.232;2022-10-31T03:34:11;14.40;99.90
33492;DHT22;20010;51.488;7.232;2022-10-31T03:36:41;14.30;99.90
33492;DHT22;20010;51.488;7.232;2022-10-31T03:39:13;14.30;99.90
33492;DHT22;20010;51.488;7.232;2022-10-31T03:41:44;14.30;99.90
33492;DHT22;20010;51.488;7.232;2022-10-31T03:44:15;14.40;99.90
33492;DHT22;20010;51.488;7.232;2022-10-31T03:46:44;14.40;99.90
33492;DHT22;20010;51.488;7.232;2022-10-31T03:49:11;14.40;99.90
33492;DHT22;20010;51.488;7.232;2022-10-31T03:54:14;14.30;99.90
33492;DHT22;20010;51.488;7.232;2022-10-31T03:56:55;14.20;99.90
33492;DHT22;20010;51.488;7.232;2022-10-31T03:59:28;14.20;99.90
33492;DHT22;20010;51.488;7.232;2022-10-31T04:01:59;14.20;99.90
33492;DHT22;20010;51.488;7.232;2022-10-31T04:04:27;14.10;99.90
33492;DHT22;20010;51.488;7.232;2022-10-31T04:06:56;14.10;99.90
33492;DHT22;20010;51.488;7.232;2022-10-31T04:09:26;14.00;99.90
33492;DHT22;20010;51.488;7.232;2022-10-31T04:11:56;14.00;99.90
33492;DHT22;20010;51.488;7.232;2022-10-31T04:14:25;14.00;99.90
33492;DHT22;20010;51.488;7.232;2022-10-31T04:16:53;13.90;99.90
33492;DHT22;20010;51.488;7.232;2022-10-31T04:19:20;13.90;99.90
33492;DHT22;20010;51.488;7.232;2022-10-31T04:21:47;13.80;99.90
33492;DHT22;20010;51.488;7.232;2022-10-31T04:24:14;13.80;99.90
33492;DHT22;20010;51.488;7.232;2022-10-31T04:26:40;13.70;99.90
33492;DHT22;20010;51.488;7.232;2022-10-31T04:29:07;13.70;99.90
33492;DHT22;20010;51.488;7.232;2022-10-31T04:31:34;13.60;99.90
33492;DHT22;20010;51.488;7.232;2022-10-31T04:34:00;13.50;99.90
33492;DHT22;20010;51.488;7.232;2022-10-31T04:36:27;13.50;99.90
33492;DHT22;20010;51.488;7.232;2022-10-31T04:38:54;13.50;99.90
33492;DHT22;20010;51.488;7.232;2022-10-31T04:41:21;13.50;99.90
33492;DHT22;20010;51.488;7.232;2022-10-31T04:43:47;13.40;99.90
33492;DHT22;20010;51.488;7.232;2022-10-31T04:46:14;13.40;99.90
33492;DHT22;20010;51.488;7.232;2022-10-31T04:48:41;13.40;99.90
33492;DHT22;20010;51.488;7.232;2022-10-31T04:51:08;13.40;99.90
33492;DHT22;20010;51.488;7.232;2022-10-31T04:53:34;13.30;99.90
33492;DHT22;20010;51.488;7.232;2022-10-31T04:56:01;13.30;99.90
33492;DHT22;20010;51.488;7.232;2022-10-31T04:58:28;13.30;99.90
33492;DHT22;20010;51.488;7.232;2022-10-31T05:00:55;13.30;99.90
33492;DHT22;20010;51.488;7.232;2022-10-31T05:03:22;13.30;99.90
33492;DHT22;20010;51.488;7.232;2022-10-31T05:05:49;13.30;99.90
33492;DHT22;20010;51.488;7.232;2022-10-31T05:08:17;13.30;99.90
33492;DHT22;20010;51.488;7.232;2022-10-31T05:10:44;13.30;99.90
33492;DHT22;20010;51.488;7.232;2022-10-31T05:13:10;13.30;99.90
33492;DHT22;20010;51.488;7.232;2022-10-31T05:15:37;13.20;99.90
33492;DHT22;20010;51.488;7.232;2022-10-31T05:18:04;13.20;99.90
33492;DHT22;20010;51.488;7.232;2022-10-31T05:20:31;13.10;99.90
33492;DHT22;20010;51.488;7.232;2022-10-31T05:22:59;13.00;99.90
33492;DHT22;20010;51.488;7.232;2022-10-31T05:25:27;13.10;99.90
33492;DHT22;20010;51.488;7.232;2022-10-31T05:27:56;13.00;99.90
33492;DHT22;20010;51.488;7.232;2022-10-31T05:30:28;13.00;99.90
33492;DHT22;20010;51.488;7.232;2022-10-31T05:32:56;12.90;99.90
33492;DHT22;20010;51.488;7.232;2022-10-31T05:35:26;12.90;99.90
33492;DHT22;20010;51.488;7.232;2022-10-31T05:37:53;12.90;99.90
33492;DHT22;20010;51.488;7.232;2022-10-31T05:40:20;12.90;99.90
33492;DHT22;20010;51.488;7.232;2022-10-31T05:42:51;12.90;99.90
33492;DHT22;20010;51.488;7.232;2022-10-31T05:45:18;12.90;99.90
33492;DHT22;20010;51.488;7.232;2022-10-31T05:47:56;12.90;99.90
33492;DHT22;20010;51.488;7.232;2022-10-31T05:50:26;12.90;99.90
33492;DHT22;20010;51.488;7.232;2022-10-31T05:53:02;12.90;99.90
33492;DHT22;20010;51.488;7.232;2022-10-31T05:55:29;12.80;99.90
33492;DHT22;20010;51.488;7.232;2022-10-31T05:57:57;12.80;99.90
33492;DHT22;20010;51.488;7.232;2022-10-31T06:00:25;12.80;99.90
33492;DHT22;20010;51.488;7.232;2022-10-31T06:03:00;12.80;99.90
33492;DHT22;20010;51.488;7.232;2022-10-31T06:05:28;12.80;99.90
33492;DHT22;20010;51.488;7.232;2022-10-31T06:07:55;12.80;99.90
33492;DHT22;20010;51.488;7.232;2022-10-31T06:10:23;12.80;99.90
33492;DHT22;20010;51.488;7.232;2022-10-31T06:12:50;12.80;99.90
33492;DHT22;20010;51.488;7.232;2022-10-31T06:15:17;12.90;99.90
33492;DHT22;20010;51.488;7.232;2022-10-31T06:18:03;12.90;99.90
33492;DHT22;20010;51.488;7.232;2022-10-31T06:20:31;12.80;99.90
33492;DHT22;20010;51.488;7.232;2022-10-31T06:22:57;12.80;99.90
33492;DHT22;20010;51.488;7.232;2022-10-31T06:25:25;12.90;99.90
33492;DHT22;20010;51.488;7.232;2022-10-31T06:27:52;12.80;99.90
33492;DHT22;20010;51.488;7.232;2022-10-31T06:30:19;12.80;99.90
33492;DHT22;20010;51.488;7.232;2022-10-31T06:32:46;12.80;99.90
33492;DHT22;20010;51.488;7.232;2022-10-31T06:35:12;12.90;99.90
33492;DHT22;20010;51.488;7.232;2022-10-31T06:37:39;12.90;99.90
33492;DHT22;20010;51.488;7.232;2022-10-31T06:40:08;12.90;99.90
33492;DHT22;20010;51.488;7.232;2022-10-31T06:42:35;12.80;99.90
33492;DHT22;20010;51.488;7.232;2022-10-31T06:45:02;12.90;99.90
33492;DHT22;20010;51.488;7.232;2022-10-31T06:47:29;12.90;99.90
33492;DHT22;20010;51.488;7.232;2022-10-31T06:49:56;12.90;99.90
33492;DHT22;20010;51.488;7.232;2022-10-31T06:52:22;12.90;99.90
33492;DHT22;20010;51.488;7.232;2022-10-31T06:54:49;12.90;99.90
33492;DHT22;20010;51.488;7.232;2022-10-31T06:57:16;12.90;99.90
33492;DHT22;20010;51.488;7.232;2022-10-31T06:59:43;12.90;99.90
33492;DHT22;20010;51.488;7.232;2022-10-31T07:02:10;12.90;99.90
33492;DHT22;20010;51.488;7.232;2022-10-31T07:04:37;12.90;99.90
33492;DHT22;20010;51.488;7.232;2022-10-31T07:07:04;13.00;99.90
33492;DHT22;20010;51.488;7.232;2022-10-31T07:09:31;13.00;99.90
33492;DHT22;20010;51.488;7.232;2022-10-31T07:11:59;13.00;99.90
33492;DHT22;20010;51.488;7.232;2022-10-31T07:14:25;13.10;99.90
33492;DHT22;20010;51.488;7.232;2022-10-31T07:16:52;13.20;99.90
33492;DHT22;20010;51.488;7.232;2022-10-31T07:19:19;13.20;99.90
33492;DHT22;20010;51.488;7.232;2022-10-31T07:21:46;13.30;99.90
33492;DHT22;20010;51.488;7.232;2022-10-31T07:24:12;13.30;99.90
33492;DHT22;20010;51.488;7.232;2022-10-31T07:26:39;13.30;99.90
33492;DHT22;20010;51.488;7.232;2022-10-31T07:29:06;13.30;99.90
33492;DHT22;20010;51.488;7.232;2022-10-31T07:31:33;13.30;99.90
33492;DHT22;20010;51.488;7.232;2022-10-31T07:33:59;13.30;99.90
33492;DHT22;20010;51.488;7.232;2022-10-31T07:36:26;13.40;99.90
33492;DHT22;20010;51.488;7.232;2022-10-31T07:38:53;13.40;99.90
33492;DHT22;20010;51.488;7.232;2022-10-31T07:41:21;13.40;99.90
33492;DHT22;20010;51.488;7.232;2022-10-31T07:43:47;13.30;99.90
33492;DHT22;20010;51.488;7.232;2022-10-31T07:46:14;13.40;99.90
33492;DHT22;20010;51.488;7.232;2022-10-31T07:48:41;13.40;99.90
33492;DHT22;20010;51.488;7.232;2022-10-31T07:51:08;13.40;99.90
33492;DHT22;20010;51.488;7.232;2022-10-31T07:53:35;13.50;99.90
33492;DHT22;20010;51.488;7.232;2022-10-31T07:56:01;13.40;99.90
33492;DHT22;20010;51.488;7.232;2022-10-31T07:58:28;13.40;99.90
33492;DHT22;20010;51.488;7.232;2022-10-31T08:00:57;13.40;99.90
33492;DHT22;20010;51.488;7.232;2022-10-31T08:03:24;13.40;99.90
33492;DHT22;20010;51.488;7.232;2022-10-31T08:05:50;13.40;99.90
33492;DHT22;20010;51.488;7.232;2022-10-31T08:08:17;13.40;99.90
33492;DHT22;20010;51.488;7.232;2022-10-31T08:10:44;13.50;99.90
33492;DHT22;20010;51.488;7.232;2022-10-31T08:13:12;13.50;99.90
33492;DHT22;20010;51.488;7.232;2022-10-31T08:15:40;13.60;99.90
33492;DHT22;20010;51.488;7.232;2022-10-31T08:18:15;13.60;99.90
33492;DHT22;20010;51.488;7.232;2022-10-31T08:20:43;13.60;99.90
33492;DHT22;20010;51.488;7.232;2022-10-31T08:23:11;13.60;99.90
33492;DHT22;20010;51.488;7.232;2022-10-31T08:25:38;13.60;99.90
33492;DHT22;20010;51.488;7.232;2022-10-31T08:28:06;13.70;99.90
33492;DHT22;20010;51.488;7.232;2022-10-31T08:30:36;13.60;99.90
33492;DHT22;20010;51.488;7.232;2022-10-31T08:33:11;13.70;99.90
33492;DHT22;20010;51.488;7.232;2022-10-31T08:35:38;13.70;99.90
33492;DHT22;20010;51.488;7.232;2022-10-31T08:38:05;13.70;99.90
33492;DHT22;20010;51.488;7.232;2022-10-31T08:40:34;13.70;99.90
33492;DHT22;20010;51.488;7.232;2022-10-31T08:43:13;13.70;99.90
33492;DHT22;20010;51.488;7.232;2022-10-31T08:45:41;13.70;99.90
33492;DHT22;20010;51.488;7.232;2022-10-31T08:48:11;13.70;99.90
33492;DHT22;20010;51.488;7.232;2022-10-31T08:50:39;13.70;99.90
33492;DHT22;20010;51.488;7.232;2022-10-31T08:53:18;13.80;99.90
33492;DHT22;20010;51.488;7.232;2022-10-31T08:55:46;13.80;99.90
33492;DHT22;20010;51.488;7.232;2022-10-31T08:58:18;14.00;99.90
33492;DHT22;20010;51.488;7.232;2022-10-31T09:00:47;14.10;99.90
33492;DHT22;20010;51.488;7.232;2022-10-31T09:03:22;14.20;99.90
33492;DHT22;20010;51.488;7.232;2022-10-31T09:05:54;14.20;99.90
33492;DHT22;20010;51.488;7.232;2022-10-31T09:08:21;14.40;99.90
33492;DHT22;20010;51.488;7.232;2022-10-31T09:10:48;14.50;99.90
33492;DHT22;20010;51.488;7.232;2022-10-31T09:13:20;14.60;99.90
33492;DHT22;20010;51.488;7.232;2022-10-31T09:15:49;14.70;99.90
33492;DHT22;20010;51.488;7.232;2022-10-31T09:18:19;14.80;99.90
33492;DHT22;20010;51.488;7.232;2022-10-31T09:20:47;14.90;99.90
33492;DHT22;20010;51.488;7.232;2022-10-31T09:23:16;15.10;99.90
33492;DHT22;20010;51.488;7.232;2022-10-31T09:25:44;15.20;99.90
33492;DHT22;20010;51.488;7.232;2022-10-31T09:28:18;15.30;99.90
33492;DHT22;20010;51.488;7.232;2022-10-31T09:30:50;15.40;99.90
33492;DHT22;20010;51.488;7.232;2022-10-31T09:33:17;15.50;99.90
33492;DHT22;20010;51.488;7.232;2022-10-31T09:35:44;15.50;99.90
33492;DHT22;20010;51.488;7.232;2022-10-31T09:38:16;15.60;99.90
33492;DHT22;20010;51.488;7.232;2022-10-31T09:41:36;15.60;99.90
33492;DHT22;20010;51.488;7.232;2022-10-31T09:52:30;16.00;99.90
33492;DHT22;20010;51.488;7.232;2022-10-31T09:55:04;16.10;99.90
33492;DHT22;20010;51.488;7.232;2022-10-31T09:57:34;16.10;99.90
33492;DHT22;20010;51.488;7.232;2022-10-31T10:00:05;16.10;99.90
33492;DHT22;20010;51.488;7.232;2022-10-31T10:05:22;16.20;99.90
33492;DHT22;20010;51.488;7.232;2022-10-31T10:29:44;16.50;99.90
33492;DHT22;20010;51.488;7.232;2022-10-31T10:32:22;16.60;99.90
33492;DHT22;20010;51.488;7.232;2022-10-31T10:34:52;16.70;99.90
33492;DHT22;20010;51.488;7.232;2022-10-31T10:37:22;16.80;99.90
33492;DHT22;20010;51.488;7.232;2022-10-31T10:39:56;16.80;99.90
33492;DHT22;20010;51.488;7.232;2022-10-31T10:42:25;16.90;99.90
33492;DHT22;20010;51.488;7.232;2022-10-31T10:45:19;16.90;99.90
33492;DHT22;20010;51.488;7.232;2022-10-31T10:48:36;17.10;99.90
33492;DHT22;20010;51.488;7.232;2022-10-31T10:51:03;17.30;99.90
33492;DHT22;20010;51.488;7.232;2022-10-31T10:54:16;17.40;99.90
33492;DHT22;20010;51.488;7.232;2022-10-31T10:59:50;17.70;99.90
33492;DHT22;20010;51.488;7.232;2022-10-31T11:02:20;17.80;99.90
33492;DHT22;20010;51.488;7.232;2022-10-31T11:04:54;17.80;99.90
33492;DHT22;20010;51.488;7.232;2022-10-31T11:07:21;17.70;99.90
33492;DHT22;20010;51.488;7.232;2022-10-31T11:09:48;17.80;99.90
33492;DHT22;20010;51.488;7.232;2022-10-31T11:12:32;17.70;99.90
33492;DHT22;20010;51.488;7.232;2022-10-31T11:15:07;17.80;99.90
33492;DHT22;20010;51.488;7.232;2022-10-31T11:17:38;17.70;99.90
33492;DHT22;20010;51.488;7.232;2022-10-31T11:22:46;17.70;99.90
33492;DHT22;20010;51.488;7.232;2022-10-31T11:27:46;17.70;99.90
33492;DHT22;20010;51.488;7.232;2022-10-31T11:30:14;17.70;99.90
33492;DHT22;20010;51.488;7.232;2022-10-31T11:32:48;17.70;99.90
33492;DHT22;20010;51.488;7.232;2022-10-31T11:35:17;17.70;99.90
33492;DHT22;20010;51.488;7.232;2022-10-31T11:37:47;17.70;99.90
33492;DHT22;20010;51.488;7.232;2022-10-31T11:40:24;17.70;99.90
33492;DHT22;20010;51.488;7.232;2022-10-31T11:42:53;17.70;99.90
33492;DHT22;20010;51.488;7.232;2022-10-31T11:45:31;17.80;99.90
33492;DHT22;20010;51.488;7.232;2022-10-31T11:48:01;17.80;99.90
33492;DHT22;20010;51.488;7.232;2022-10-31T11:50:40;17.90;99.90
33492;DHT22;20010;51.488;7.232;2022-10-31T11:53:20;17.90;99.90
33492;DHT22;20010;51.488;7.232;2022-10-31T11:55:58;18.00;99.90
33492;DHT22;20010;51.488;7.232;2022-10-31T11:58:26;18.00;99.90
33492;DHT22;20010;51.488;7.232;2022-10-31T12:00:55;18.10;99.90
33492;DHT22;20010;51.488;7.232;2022-10-31T12:06:07;18.10;99.90
33492;DHT22;20010;51.488;7.232;2022-10-31T12:08:35;18.10;99.90
33492;DHT22;20010;51.488;7.232;2022-10-31T12:22:08;18.10;99.90
33492;DHT22;20010;51.488;7.232;2022-10-31T12:33:50;18.40;99.90
33492;DHT22;20010;51.488;7.232;2022-10-31T12:36:54;18.60;99.90
33492;DHT22;20010;51.488;7.232;2022-10-31T12:45:04;19.00;99.90
33492;DHT22;20010;51.488;7.232;2022-10-31T12:50:47;19.30;99.90
33492;DHT22;20010;51.488;7.232;2022-10-31T12:56:31;19.60;99.90
33492;DHT22;20010;51.488;7.232;2022-10-31T12:59:08;19.70;99.90
33492;DHT22;20010;51.488;7.232;2022-10-31T13:01:54;19.80;99.90
33492;DHT22;20010;51.488;7.232;2022-10-31T13:04:42;20.10;99.90
33492;DHT22;20010;51.488;7.232;2022-10-31T13:07:23;20.10;99.90
33492;DHT22;20010;51.488;7.232;2022-10-31T13:10:06;20.40;99.90
33492;DHT22;20010;51.488;7.232;2022-10-31T13:12:34;20.50;99.90
33492;DHT22;20010;51.488;7.232;2022-10-31T13:15:19;20.60;99.90
33492;DHT22;20010;51.488;7.232;2022-10-31T13:17:50;20.60;99.90
33492;DHT22;20010;51.488;7.232;2022-10-31T13:20:25;20.70;99.90
33492;DHT22;20010;51.488;7.232;2022-10-31T13:22:56;20.60;99.90
33492;DHT22;20010;51.488;7.232;2022-10-31T13:25:31;20.70;99.90
33492;DHT22;20010;51.488;7.232;2022-10-31T13:30:43;20.60;99.90
33492;DHT22;20010;51.488;7.232;2022-10-31T13:44:05;20.10;99.90
33492;DHT22;20010;51.488;7.232;2022-10-31T13:46:37;20.00;99.90
33492;DHT22;20010;51.488;7.232;2022-10-31T13:49:19;20.00;99.90
33492;DHT22;20010;51.488;7.232;2022-10-31T13:51:48;20.00;99.90
33492;DHT22;20010;51.488;7.232;2022-10-31T13:54:32;20.00;99.90
33492;DHT22;20010;51.488;7.232;2022-10-31T13:56:59;20.00;99.90
33492;DHT22;20010;51.488;7.232;2022-10-31T13:59:28;19.90;99.90
33492;DHT22;20010;51.488;7.232;2022-10-31T14:01:59;20.00;99.90
33492;DHT22;20010;51.488;7.232;2022-10-31T14:04:38;20.10;99.90
33492;DHT22;20010;51.488;7.232;2022-10-31T14:07:19;20.20;99.90
33492;DHT22;20010;51.488;7.232;2022-10-31T14:12:36;20.30;99.90
33492;DHT22;20010;51.488;7.232;2022-10-31T14:18:01;20.30;99.90
33492;DHT22;20010;51.488;7.232;2022-10-31T14:20:38;20.30;99.90
33492;DHT22;20010;51.488;7.232;2022-10-31T14:23:28;20.20;99.90
33492;DHT22;20010;51.488;7.232;2022-10-31T14:26:34;20.30;99.90
33492;DHT22;20010;51.488;7.232;2022-10-31T14:34:29;20.50;99.90
33492;DHT22;20010;51.488;7.232;2022-10-31T14:46:09;20.30;99.90
33492;DHT22;20010;51.488;7.232;2022-10-31T14:49:12;20.20;99.90
33492;DHT22;20010;51.488;7.232;2022-10-31T14:51:47;20.10;99.90
33492;DHT22;20010;51.488;7.232;2022-10-31T14:54:30;20.00;99.90
33492;DHT22;20010;51.488;7.232;2022-10-31T14:57:02;20.00;99.90
33492;DHT22;20010;51.488;7.232;2022-10-31T14:59:33;19.90;99.90
33492;DHT22;20010;51.488;7.232;2022-10-31T15:02:21;19.90;99.90
33492;DHT22;20010;51.488;7.232;2022-10-31T15:04:51;19.80;99.90
33492;DHT22;20010;51.488;7.232;2022-10-31T15:07:24;19.80;99.90
33492;DHT22;20010;51.488;7.232;2022-10-31T15:10:00;19.70;99.90
33492;DHT22;20010;51.488;7.232;2022-10-31T15:12:30;19.70;99.90
33492;DHT22;20010;51.488;7.232;2022-10-31T15:14:57;19.70;99.90
33492;DHT22;20010;51.488;7.232;2022-10-31T15:17:27;19.60;99.90
33492;DHT22;20010;51.488;7.232;2022-10-31T15:19:54;19.60;99.90
33492;DHT22;20010;51.488;7.232;2022-10-31T15:22:23;19.60;99.90
33492;DHT22;20010;51.488;7.232;2022-10-31T15:24:50;19.60;99.90
33492;DHT22;20010;51.488;7.232;2022-10-31T15:27:23;19.50;99.90
33492;DHT22;20010;51.488;7.232;2022-10-31T15:29:52;19.50;99.90
33492;DHT22;20010;51.488;7.232;2022-10-31T15:32:27;19.40;99.90
33492;DHT22;20010;51.488;7.232;2022-10-31T15:34:55;19.50;99.90
33492;DHT22;20010;51.488;7.232;2022-10-31T15:37:24;19.40;99.90
33492;DHT22;20010;51.488;7.232;2022-10-31T15:39:51;19.30;99.90
33492;DHT22;20010;51.488;7.232;2022-10-31T15:42:29;19.30;99.90
33492;DHT22;20010;51.488;7.232;2022-10-31T15:45:24;19.20;99.90
33492;DHT22;20010;51.488;7.232;2022-10-31T15:50:31;19.20;99.90
33492;DHT22;20010;51.488;7.232;2022-10-31T15:52:59;19.10;99.90
33492;DHT22;20010;51.488;7.232;2022-10-31T15:55:29;19.10;99.90
33492;DHT22;20010;51.488;7.232;2022-10-31T15:58:01;19.00;99.90
33492;DHT22;20010;51.488;7.232;2022-10-31T16:00:34;19.00;99.90
33492;DHT22;20010;51.488;7.232;2022-10-31T16:05:45;18.80;99.90
33492;DHT22;20010;51.488;7.232;2022-10-31T16:13:39;18.60;99.90
33492;DHT22;20010;51.488;7.232;2022-10-31T16:16:15;18.60;99.90
33492;DHT22;20010;51.488;7.232;2022-10-31T16:19:04;18.40;99.90
33492;DHT22;20010;51.488;7.232;2022-10-31T16:21:35;18.40;99.90
33492;DHT22;20010;51.488;7.232;2022-10-31T16:24:17;18.30;99.90
33492;DHT22;20010;51.488;7.232;2022-10-31T16:26:51;18.30;99.90
33492;DHT22;20010;51.488;7.232;2022-10-31T16:29:38;18.20;99.90
33492;DHT22;20010;51.488;7.232;2022-10-31T16:32:27;18.10;99.90
33492;DHT22;20010;51.488;7.232;2022-10-31T16:37:39;18.10;99.90
33492;DHT22;20010;51.488;7.232;2022-10-31T16:40:15;18.00;99.90
33492;DHT22;20010;51.488;7.232;2022-10-31T16:42:42;17.90;99.90
33492;DHT22;20010;51.488;7.232;2022-10-31T16:45:20;17.90;99.90
33492;DHT22;20010;51.488;7.232;2022-10-31T16:47:48;17.80;99.90
33492;DHT22;20010;51.488;7.232;2022-10-31T16:50:25;17.80;99.90
33492;DHT22;20010;51.488;7.232;2022-10-31T16:52:52;17.70;99.90
33492;DHT22;20010;51.488;7.232;2022-10-31T16:55:55;17.70;99.90
33492;DHT22;20010;51.488;7.232;2022-10-31T16:58:29;17.70;99.90
33492;DHT22;20010;51.488;7.232;2022-10-31T17:01:02;17.60;99.90
33492;DHT22;20010;51.488;7.232;2022-10-31T17:03:30;17.70;99.90
33492;DHT22;20010;51.488;7.232;2022-10-31T17:05:57;17.60;99.90
33492;DHT22;20010;51.488;7.232;2022-10-31T17:08:24;17.60;99.90
33492;DHT22;20010;51.488;7.232;2022-10-31T17:10:53;17.70;99.90
33492;DHT22;20010;51.488;7.232;2022-10-31T17:13:24;17.70;99.90
33492;DHT22;20010;51.488;7.232;2022-10-31T17:15:54;17.70;99.90
33492;DHT22;20010;51.488;7.232;2022-10-31T17:18:21;17.70;99.90
33492;DHT22;20010;51.488;7.232;2022-10-31T17:21:02;17.70;99.90
33492;DHT22;20010;51.488;7.232;2022-10-31T17:23:31;17.70;99.90
33492;DHT22;20010;51.488;7.232;2022-10-31T17:25:58;17.70;99.90
33492;DHT22;20010;51.488;7.232;2022-10-31T17:28:25;17.70;99.90
33492;DHT22;20010;51.488;7.232;2022-10-31T17:30:56;17.70;99.90
33492;DHT22;20010;51.488;7.232;2022-10-31T17:33:24;17.70;99.90
33492;DHT22;20010;51.488;7.232;2022-10-31T17:35:51;17.70;99.90
33492;DHT22;20010;51.488;7.232;2022-10-31T17:38:18;17.60;99.90
33492;DHT22;20010;51.488;7.232;2022-10-31T17:40:44;17.60;99.90
33492;DHT22;20010;51.488;7.232;2022-10-31T17:43:16;17.50;99.90
33492;DHT22;20010;51.488;7.232;2022-10-31T17:45:43;17.50;99.90
33492;DHT22;20010;51.488;7.232;2022-10-31T17:48:11;17.40;99.90
33492;DHT22;20010;51.488;7.232;2022-10-31T17:50:38;17.40;99.90
33492;DHT22;20010;51.488;7.232;2022-10-31T17:53:05;17.40;99.90
33492;DHT22;20010;51.488;7.232;2022-10-31T17:55:32;17.40;99.90
33492;DHT22;20010;51.488;7.232;2022-10-31T17:58:03;17.40;99.90
33492;DHT22;20010;51.488;7.232;2022-10-31T18:00:30;17.40;99.90
33492;DHT22;20010;51.488;7.232;2022-10-31T18:02:56;17.50;99.90
33492;DHT22;20010;51.488;7.232;2022-10-31T18:05:24;17.50;99.90
33492;DHT22;20010;51.488;7.232;2022-10-31T18:07:50;17.50;99.90
33492;DHT22;20010;51.488;7.232;2022-10-31T18:10:18;17.50;99.90
33492;DHT22;20010;51.488;7.232;2022-10-31T18:12:45;17.50;99.90
33492;DHT22;20010;51.488;7.232;2022-10-31T18:15:15;17.60;99.90
33492;DHT22;20010;51.488;7.232;2022-10-31T18:17:42;17.70;99.90
33492;DHT22;20010;51.488;7.232;2022-10-31T18:20:13;17.70;99.90
33492;DHT22;20010;51.488;7.232;2022-10-31T18:22:43;17.80;99.90
33492;DHT22;20010;51.488;7.232;2022-10-31T18:25:09;17.90;99.90
33492;DHT22;20010;51.488;7.232;2022-10-31T18:27:36;17.90;99.90
33492;DHT22;20010;51.488;7.232;2022-10-31T18:30:03;17.90;99.90
33492;DHT22;20010;51.488;7.232;2022-10-31T18:32:30;17.90;99.90
33492;DHT22;20010;51.488;7.232;2022-10-31T18:34:57;17.80;99.90